sensor_id;sensor_type;location;lat;lon;timestamp;pressure;altitude;pressure_sealevel;temperature;humidity
29433;BME280;16405;53.964;13.448;2022-10-16T00:01:35;100546.78;;;13.40;100.00
29433;BME280;16405;53.964;13.448;2022-10-16T00:04:02;100547.06;;;13.36;100.00
29433;BME280;16405;53.964;13.448;2022-10-16T00:06:31;100540.16;;;13.33;100.00
29433;BME280;16405;53.964;13.448;2022-10-16T00:08:59;100552.78;;;13.28;100.00
29433;BME280;16405;53.964;13.448;2022-10-16T00:11:31;100542.47;;;13.23;100.00
29433;BME280;16405;53.964;13.448;2022-10-16T00:14:01;100548.81;;;13.21;100.00
29433;BME280;16405;53.964;13.448;2022-10-16T00:16:28;100545.59;;;13.16;100.00
29433;BME280;16405;53.964;13.448;2022-10-16T00:18:54;100544.91;;;13.12;100.00
29433;BME280;16405;53.964;13.448;2022-10-16T00:21:27;100554.81;;;13.08;100.00
29433;BME280;16405;53.964;13.448;2022-10-16T00:24:03;100565.66;;;13.04;100.00
29433;BME280;16405;53.964;13.448;2022-10-16T00:26:34;100566.78;;;13.00;100.00
29433;BME280;16405;53.964;13.448;2022-10-16T00:29:00;100570.56;;;12.96;100.00
29433;BME280;16405;53.964;13.448;2022-10-16T00:31:26;100579.72;;;12.90;100.00
29433;BME280;16405;53.964;13.448;2022-10-16T00:33:52;100575.47;;;12.87;100.00
29433;BME280;16405;53.964;13.448;2022-10-16T00:36:21;100582.44;;;12.88;100.00
29433;BME280;16405;53.964;13.448;2022-10-16T00:38:54;100582.28;;;12.91;100.00
29433;BME280;16405;53.964;13.448;2022-10-16T00:41:23;100596.06;;;12.97;100.00
29433;BME280;16405;53.964;13.448;2022-10-16T00:43:54;100598.91;;;13.08;100.00
29433;BME280;16405;53.964;13.448;2022-10-16T00:51:51;100596.47;;;13.35;100.00
29433;BME280;16405;53.964;13.448;2022-10-16T00:54:27;100594.28;;;13.42;100.00
29433;BME280;16405;53.964;13.448;2022-10-16T00:56:58;100600.16;;;13.47;100.00
29433;BME280;16405;53.964;13.448;2022-10-16T00:59:35;100598.19;;;13.50;100.00
29433;BME280;16405;53.964;13.448;2022-10-16T01:02:04;100594.28;;;13.56;100.00
29433;BME280;16405;53.964;13.448;2022-10-16T01:04:48;100597.53;;;13.61;100.00
29433;BME280;16405;53.964;13.448;2022-10-16T01:10:14;100602.91;;;13.74;100.00
29433;BME280;16405;53.964;13.448;2022-10-16T01:13:03;100609.59;;;13.80;100.00
29433;BME280;16405;53.964;13.448;2022-10-16T01:15:55;100610.19;;;13.85;100.00
29433;BME280;16405;53.964;13.448;2022-10-16T01:18:54;100614.13;;;13.92;100.00
29433;BME280;16405;53.964;13.448;2022-10-16T01:21:39;100612.16;;;13.95;100.00
29433;BME280;16405;53.964;13.448;2022-10-16T01:24:41;100606.50;;;14.02;100.00
29433;BME280;16405;53.964;13.448;2022-10-16T01:27:39;100609.78;;;14.05;100.00
29433;BME280;16405;53.964;13.448;2022-10-16T01:30:16;100610.72;;;14.04;100.00
29433;BME280;16405;53.964;13.448;2022-10-16T01:32:55;100609.84;;;14.04;100.00
29433;BME280;16405;53.964;13.448;2022-10-16T01:35:46;100611.88;;;14.00;100.00
29433;BME280;16405;53.964;13.448;2022-10-16T01:38:40;100620.75;;;13.99;100.00
29433;BME280;16405;53.964;13.448;2022-10-16T01:41:48;100626.78;;;14.01;100.00
29433;BME280;16405;53.964;13.448;2022-10-16T01:44:44;100636.34;;;14.04;100.00
29433;BME280;16405;53.964;13.448;2022-10-16T01:47:13;100634.56;;;14.04;100.00
29433;BME280;16405;53.964;13.448;2022-10-16T01:49:41;100625.47;;;14.08;100.00
29433;BME280;16405;53.964;13.448;2022-10-16T01:52:15;100634.19;;;14.10;100.00
29433;BME280;16405;53.964;13.448;2022-10-16T01:54:46;100645.69;;;14.09;100.00
29433;BME280;16405;53.964;13.448;2022-10-16T01:57:14;100654.50;;;14.10;100.00
29433;BME280;16405;53.964;13.448;2022-10-16T01:59:48;100645.78;;;14.08;100.00
29433;BME280;16405;53.964;13.448;2022-10-16T02:02:19;100647.59;;;14.07;100.00
29433;BME280;16405;53.964;13.448;2022-10-16T02:04:55;100637.97;;;14.06;100.00
29433;BME280;16405;53.964;13.448;2022-10-16T02:07:23;100645.03;;;14.06;100.00
29433;BME280;16405;53.964;13.448;2022-10-16T02:09:49;100639.09;;;14.02;100.00
29433;BME280;16405;53.964;13.448;2022-10-16T02:12:43;100640.16;;;14.00;100.00
29433;BME280;16405;53.964;13.448;2022-10-16T02:15:08;100647.50;;;13.94;100.00
29433;BME280;16405;53.964;13.448;2022-10-16T02:17:34;100653.00;;;13.91;100.00
29433;BME280;16405;53.964;13.448;2022-10-16T02:20:00;100660.19;;;13.89;100.00
29433;BME280;16405;53.964;13.448;2022-10-16T02:22:47;100679.91;;;13.84;100.00
29433;BME280;16405;53.964;13.448;2022-10-16T02:25:31;100674.00;;;13.80;100.00
29433;BME280;16405;53.964;13.448;2022-10-16T02:28:16;100666.97;;;13.79;100.00
29433;BME280;16405;53.964;13.448;2022-10-16T02:31:01;100666.31;;;13.75;100.00
29433;BME280;16405;53.964;13.448;2022-10-16T02:33:32;100673.41;;;13.75;100.00
29433;BME280;16405;53.964;13.448;2022-10-16T02:35:59;100670.84;;;13.73;100.00
29433;BME280;16405;53.964;13.448;2022-10-16T02:38:25;100670.84;;;13.73;100.00
29433;BME280;16405;53.964;13.448;2022-10-16T02:40:52;100668.31;;;13.72;100.00
29433;BME280;16405;53.964;13.448;2022-10-16T02:43:21;100679.94;;;13.69;100.00
29433;BME280;16405;53.964;13.448;2022-10-16T02:45:46;100667.63;;;13.68;100.00
29433;BME280;16405;53.964;13.448;2022-10-16T02:48:12;100663.47;;;13.64;100.00
29433;BME280;16405;53.964;13.448;2022-10-16T02:50:38;100668.28;;;13.58;100.00
29433;BME280;16405;53.964;13.448;2022-10-16T02:53:04;100672.16;;;13.52;100.00
29433;BME280;16405;53.964;13.448;2022-10-16T02:55:29;100676.28;;;13.42;100.00
29433;BME280;16405;53.964;13.448;2022-10-16T02:57:55;100667.94;;;13.33;100.00
29433;BME280;16405;53.964;13.448;2022-10-16T03:00:22;100684.13;;;13.27;100.00
29433;BME280;16405;53.964;13.448;2022-10-16T03:02:55;100677.59;;;13.19;100.00
29433;BME280;16405;53.964;13.448;2022-10-16T03:05:20;100676.16;;;13.13;100.00
29433;BME280;16405;53.964;13.448;2022-10-16T03:07:46;100669.53;;;13.06;100.00
29433;BME280;16405;53.964;13.448;2022-10-16T03:10:12;100676.88;;;13.01;100.00
29433;BME280;16405;53.964;13.448;2022-10-16T03:12:40;100673.63;;;12.96;100.00
29433;BME280;16405;53.964;13.448;2022-10-16T03:15:09;100678.25;;;12.92;100.00
29433;BME280;16405;53.964;13.448;2022-10-16T03:17:35;100683.69;;;12.89;100.00
29433;BME280;16405;53.964;13.448;2022-10-16T03:20:01;100688.81;;;12.92;100.00
29433;BME280;16405;53.964;13.448;2022-10-16T03:22:31;100693.06;;;12.95;100.00
29433;BME280;16405;53.964;13.448;2022-10-16T03:25:00;100688.63;;;12.95;100.00
29433;BME280;16405;53.964;13.448;2022-10-16T03:27:26;100697.34;;;12.97;100.00
29433;BME280;16405;53.964;13.448;2022-10-16T03:29:51;100697.25;;;12.99;100.00
29433;BME280;16405;53.964;13.448;2022-10-16T03:32:17;100692.81;;;12.99;100.00
29433;BME280;16405;53.964;13.448;2022-10-16T03:34:43;100705.09;;;13.00;100.00
29433;BME280;16405;53.964;13.448;2022-10-16T03:37:14;100714.72;;;13.01;100.00
29433;BME280;16405;53.964;13.448;2022-10-16T03:39:40;100710.28;;;13.02;100.00
29433;BME280;16405;53.964;13.448;2022-10-16T03:42:06;100715.56;;;13.02;100.00
29433;BME280;16405;53.964;13.448;2022-10-16T03:44:32;100713.88;;;13.01;100.00
29433;BME280;16405;53.964;13.448;2022-10-16T03:46:58;100716.59;;;12.99;100.00
29433;BME280;16405;53.964;13.448;2022-10-16T03:49:23;100712.34;;;12.97;100.00
29433;BME280;16405;53.964;13.448;2022-10-16T03:51:54;100717.63;;;12.97;100.00
29433;BME280;16405;53.964;13.448;2022-10-16T03:54:20;100723.94;;;12.94;100.00
29433;BME280;16405;53.964;13.448;2022-10-16T03:56:48;100714.31;;;12.93;100.00
29433;BME280;16405;53.964;13.448;2022-10-16T03:59:14;100719.69;;;12.91;100.00
29433;BME280;16405;53.964;13.448;2022-10-16T04:01:40;100723.25;;;12.90;100.00
29433;BME280;16405;53.964;13.448;2022-10-16T04:04:08;100732.13;;;12.89;100.00
29433;BME280;16405;53.964;13.448;2022-10-16T04:06:36;100730.34;;;12.90;100.00
29433;BME280;16405;53.964;13.448;2022-10-16T04:09:02;100730.41;;;12.88;100.00
29433;BME280;16405;53.964;13.448;2022-10-16T04:11:28;100727.84;;;12.87;100.00
29433;BME280;16405;53.964;13.448;2022-10-16T04:13:54;100724.44;;;12.85;100.00
29433;BME280;16405;53.964;13.448;2022-10-16T04:16:20;100725.47;;;12.82;100.00
29433;BME280;16405;53.964;13.448;2022-10-16T04:18:46;100730.88;;;12.81;100.00
29433;BME280;16405;53.964;13.448;2022-10-16T04:21:14;100735.38;;;12.79;100.00
29433;BME280;16405;53.964;13.448;2022-10-16T04:23:40;100729.22;;;12.78;100.00
29433;BME280;16405;53.964;13.448;2022-10-16T04:26:05;100736.38;;;12.76;100.00
29433;BME280;16405;53.964;13.448;2022-10-16T04:28:31;100742.63;;;12.75;100.00
29433;BME280;16405;53.964;13.448;2022-10-16T04:30:57;100749.94;;;12.70;100.00
29433;BME280;16405;53.964;13.448;2022-10-16T04:33:23;100740.50;;;12.66;100.00
29433;BME280;16405;53.964;13.448;2022-10-16T04:35:56;100751.06;;;12.66;100.00
29433;BME280;16405;53.964;13.448;2022-10-16T04:38:21;100749.50;;;12.62;100.00
29433;BME280;16405;53.964;13.448;2022-10-16T04:40:47;100749.84;;;12.56;100.00
29433;BME280;16405;53.964;13.448;2022-10-16T04:43:13;100758.03;;;12.51;100.00
29433;BME280;16405;53.964;13.448;2022-10-16T04:45:48;100756.63;;;12.44;100.00
29433;BME280;16405;53.964;13.448;2022-10-16T04:48:30;100749.97;;;12.37;100.00
29433;BME280;16405;53.964;13.448;2022-10-16T04:50:56;100744.88;;;12.34;100.00
29433;BME280;16405;53.964;13.448;2022-10-16T04:53:22;100748.69;;;12.28;100.00
29433;BME280;16405;53.964;13.448;2022-10-16T04:55:48;100746.28;;;12.23;100.00
29433;BME280;16405;53.964;13.448;2022-10-16T04:58:13;100752.75;;;12.18;100.00
29433;BME280;16405;53.964;13.448;2022-10-16T05:00:45;100749.50;;;12.13;100.00
29433;BME280;16405;53.964;13.448;2022-10-16T05:03:13;100755.03;;;12.08;100.00
29433;BME280;16405;53.964;13.448;2022-10-16T05:05:45;100752.53;;;12.05;100.00
29433;BME280;16405;53.964;13.448;2022-10-16T05:08:16;100759.00;;;11.99;100.00
29433;BME280;16405;53.964;13.448;2022-10-16T05:10:43;100764.41;;;11.96;100.00
29433;BME280;16405;53.964;13.448;2022-10-16T05:13:14;100756.75;;;11.92;100.00
29433;BME280;16405;53.964;13.448;2022-10-16T05:15:40;100765.81;;;11.86;100.00
29433;BME280;16405;53.964;13.448;2022-10-16T05:18:06;100766.81;;;11.83;100.00
29433;BME280;16405;53.964;13.448;2022-10-16T05:20:32;100763.63;;;11.77;100.00
29433;BME280;16405;53.964;13.448;2022-10-16T05:22:58;100759.44;;;11.73;100.00
29433;BME280;16405;53.964;13.448;2022-10-16T05:25:24;100765.88;;;11.67;100.00
29433;BME280;16405;53.964;13.448;2022-10-16T05:27:55;100759.97;;;11.62;100.00
29433;BME280;16405;53.964;13.448;2022-10-16T05:30:21;100756.66;;;11.58;100.00
29433;BME280;16405;53.964;13.448;2022-10-16T05:32:51;100777.81;;;11.57;100.00
29433;BME280;16405;53.964;13.448;2022-10-16T05:35:20;100777.91;;;11.55;100.00
29433;BME280;16405;53.964;13.448;2022-10-16T05:37:49;100778.78;;;11.56;100.00
29433;BME280;16405;53.964;13.448;2022-10-16T05:40:15;100778.66;;;11.57;100.00
29433;BME280;16405;53.964;13.448;2022-10-16T05:42:42;100782.19;;;11.58;100.00
29433;BME280;16405;53.964;13.448;2022-10-16T05:45:10;100773.41;;;11.57;100.00
29433;BME280;16405;53.964;13.448;2022-10-16T05:47:40;100777.75;;;11.58;100.00
29433;BME280;16405;53.964;13.448;2022-10-16T05:50:07;100789.16;;;11.59;100.00
29433;BME280;16405;53.964;13.448;2022-10-16T05:52:32;100793.59;;;11.58;100.00
29433;BME280;16405;53.964;13.448;2022-10-16T05:54:58;100791.78;;;11.59;100.00
29433;BME280;16405;53.964;13.448;2022-10-16T05:57:24;100799.69;;;11.59;100.00
29433;BME280;16405;53.964;13.448;2022-10-16T05:59:57;100798.78;;;11.60;100.00
29433;BME280;16405;53.964;13.448;2022-10-16T06:02:23;100801.44;;;11.60;100.00
29433;BME280;16405;53.964;13.448;2022-10-16T06:04:51;100806.69;;;11.60;100.00
29433;BME280;16405;53.964;13.448;2022-10-16T06:07:22;100803.19;;;11.59;100.00
29433;BME280;16405;53.964;13.448;2022-10-16T06:09:52;100804.91;;;11.60;100.00
29433;BME280;16405;53.964;13.448;2022-10-16T06:12:19;100814.38;;;11.64;100.00
29433;BME280;16405;53.964;13.448;2022-10-16T06:14:46;100821.75;;;11.75;100.00
29433;BME280;16405;53.964;13.448;2022-10-16T06:17:15;100828.34;;;11.84;100.00
29433;BME280;16405;53.964;13.448;2022-10-16T06:19:41;100838.53;;;11.92;100.00
29433;BME280;16405;53.964;13.448;2022-10-16T06:22:07;100833.91;;;11.97;100.00
29433;BME280;16405;53.964;13.448;2022-10-16T06:24:33;100838.00;;;12.02;100.00
29433;BME280;16405;53.964;13.448;2022-10-16T06:26:59;100839.56;;;12.06;100.00
29433;BME280;16405;53.964;13.448;2022-10-16T06:29:24;100847.34;;;12.09;100.00
29433;BME280;16405;53.964;13.448;2022-10-16T06:31:50;100843.75;;;12.10;100.00
29433;BME280;16405;53.964;13.448;2022-10-16T06:34:19;100842.81;;;12.11;100.00
29433;BME280;16405;53.964;13.448;2022-10-16T06:36:45;100844.16;;;12.20;100.00
29433;BME280;16405;53.964;13.448;2022-10-16T06:39:10;100844.81;;;12.24;100.00
29433;BME280;16405;53.964;13.448;2022-10-16T06:41:36;100850.75;;;12.29;100.00
29433;BME280;16405;53.964;13.448;2022-10-16T06:44:06;100843.25;;;12.37;100.00
29433;BME280;16405;53.964;13.448;2022-10-16T06:46:33;100848.75;;;12.50;100.00
29433;BME280;16405;53.964;13.448;2022-10-16T06:48:59;100860.47;;;12.62;100.00
29433;BME280;16405;53.964;13.448;2022-10-16T06:51:25;100866.09;;;12.71;100.00
29433;BME280;16405;53.964;13.448;2022-10-16T06:53:54;100877.81;;;12.83;100.00
29433;BME280;16405;53.964;13.448;2022-10-16T06:56:28;100870.34;;;12.91;100.00
29433;BME280;16405;53.964;13.448;2022-10-16T06:58:55;100883.19;;;12.98;100.00
29433;BME280;16405;53.964;13.448;2022-10-16T07:01:23;100890.78;;;13.04;100.00
29433;BME280;16405;53.964;13.448;2022-10-16T07:03:58;100900.97;;;13.11;100.00
29433;BME280;16405;53.964;13.448;2022-10-16T07:06:26;100899.44;;;13.23;100.00
29433;BME280;16405;53.964;13.448;2022-10-16T07:08:52;100898.31;;;13.27;100.00
29433;BME280;16405;53.964;13.448;2022-10-16T07:11:23;100905.09;;;13.33;100.00
29433;BME280;16405;53.964;13.448;2022-10-16T07:13:50;100909.88;;;13.42;100.00
29433;BME280;16405;53.964;13.448;2022-10-16T07:16:20;100909.63;;;13.47;100.00
29433;BME280;16405;53.964;13.448;2022-10-16T07:18:54;100918.06;;;13.53;100.00
29433;BME280;16405;53.964;13.448;2022-10-16T07:21:24;100924.75;;;13.61;100.00
29433;BME280;16405;53.964;13.448;2022-10-16T07:23:58;100928.75;;;13.68;100.00
29433;BME280;16405;53.964;13.448;2022-10-16T07:26:26;100930.00;;;13.77;100.00
29433;BME280;16405;53.964;13.448;2022-10-16T07:28:52;100930.50;;;13.83;100.00
29433;BME280;16405;53.964;13.448;2022-10-16T07:31:26;100931.19;;;13.87;100.00
29433;BME280;16405;53.964;13.448;2022-10-16T07:33:53;100938.41;;;13.99;100.00
29433;BME280;16405;53.964;13.448;2022-10-16T07:36:23;100933.63;;;14.06;100.00
29433;BME280;16405;53.964;13.448;2022-10-16T07:38:52;100942.88;;;14.29;100.00
29433;BME280;16405;53.964;13.448;2022-10-16T07:41:19;100940.44;;;14.56;100.00
29433;BME280;16405;53.964;13.448;2022-10-16T07:43:51;100940.38;;;14.86;100.00
29433;BME280;16405;53.964;13.448;2022-10-16T07:46:22;100946.78;;;15.39;98.97
29433;BME280;16405;53.964;13.448;2022-10-16T07:48:48;100965.91;;;15.73;96.05
29433;BME280;16405;53.964;13.448;2022-10-16T07:51:23;100960.78;;;16.25;93.14
29433;BME280;16405;53.964;13.448;2022-10-16T07:53:50;100966.94;;;16.91;89.64
29433;BME280;16405;53.964;13.448;2022-10-16T07:56:17;100982.47;;;17.35;86.56
29433;BME280;16405;53.964;13.448;2022-10-16T07:58:44;100985.56;;;17.29;85.31
29433;BME280;16405;53.964;13.448;2022-10-16T08:01:14;100983.97;;;17.27;84.54
29433;BME280;16405;53.964;13.448;2022-10-16T08:03:46;100980.88;;;17.20;83.60
29433;BME280;16405;53.964;13.448;2022-10-16T08:06:12;100979.38;;;17.41;83.66
29433;BME280;16405;53.964;13.448;2022-10-16T08:08:43;100983.44;;;18.08;80.99
29433;BME280;16405;53.964;13.448;2022-10-16T08:11:09;100980.06;;;18.06;80.44
29433;BME280;16405;53.964;13.448;2022-10-16T08:13:36;100972.50;;;18.00;79.76
29433;BME280;16405;53.964;13.448;2022-10-16T08:16:02;100973.00;;;18.05;79.79
29433;BME280;16405;53.964;13.448;2022-10-16T08:18:35;100975.63;;;17.94;80.04
29433;BME280;16405;53.964;13.448;2022-10-16T08:21:02;100973.66;;;17.72;80.16
29433;BME280;16405;53.964;13.448;2022-10-16T08:23:28;100971.28;;;17.43;80.94
29433;BME280;16405;53.964;13.448;2022-10-16T08:25:55;100988.53;;;17.25;81.95
29433;BME280;16405;53.964;13.448;2022-10-16T08:28:26;100986.22;;;16.94;82.70
29433;BME280;16405;53.964;13.448;2022-10-16T08:30:53;100989.53;;;16.85;83.41
29433;BME280;16405;53.964;13.448;2022-10-16T08:33:20;100991.88;;;17.02;83.38
29433;BME280;16405;53.964;13.448;2022-10-16T08:35:53;101000.03;;;17.12;82.66
29433;BME280;16405;53.964;13.448;2022-10-16T08:38:21;101009.59;;;17.40;81.83
29433;BME280;16405;53.964;13.448;2022-10-16T08:40:47;101012.50;;;17.74;80.79
29433;BME280;16405;53.964;13.448;2022-10-16T08:43:47;101013.47;;;18.70;77.40
29433;BME280;16405;53.964;13.448;2022-10-16T08:46:32;101010.19;;;19.69;74.16
29433;BME280;16405;53.964;13.448;2022-10-16T08:49:01;101018.13;;;20.58;71.25
29433;BME280;16405;53.964;13.448;2022-10-16T08:51:34;101006.44;;;21.01;68.88
29433;BME280;16405;53.964;13.448;2022-10-16T08:54:37;101012.38;;;21.04;67.16
29433;BME280;16405;53.964;13.448;2022-10-16T08:57:19;101012.84;;;20.88;67.57
29433;BME280;16405;53.964;13.448;2022-10-16T08:59:46;101009.59;;;20.85;67.44
29433;BME280;16405;53.964;13.448;2022-10-16T09:02:33;101008.13;;;21.02;66.62
29433;BME280;16405;53.964;13.448;2022-10-16T09:07:47;101022.63;;;20.99;66.67
29433;BME280;16405;53.964;13.448;2022-10-16T09:16:34;101024.56;;;20.23;68.34
29433;BME280;16405;53.964;13.448;2022-10-16T09:19:20;101028.66;;;19.61;70.67
29433;BME280;16405;53.964;13.448;2022-10-16T09:21:53;101023.91;;;19.19;72.10
29433;BME280;16405;53.964;13.448;2022-10-16T09:24:29;101016.44;;;18.78;72.91
29433;BME280;16405;53.964;13.448;2022-10-16T09:26:55;101018.16;;;18.55;73.35
29433;BME280;16405;53.964;13.448;2022-10-16T09:29:30;101023.81;;;18.39;74.33
29433;BME280;16405;53.964;13.448;2022-10-16T09:32:20;101014.03;;;18.27;74.02
29433;BME280;16405;53.964;13.448;2022-10-16T09:34:55;101014.25;;;18.12;74.15
29433;BME280;16405;53.964;13.448;2022-10-16T09:37:30;101018.94;;;18.09;74.07
29433;BME280;16405;53.964;13.448;2022-10-16T09:39:59;101023.91;;;18.13;74.01
29433;BME280;16405;53.964;13.448;2022-10-16T09:42:38;101017.66;;;18.14;73.89
29433;BME280;16405;53.964;13.448;2022-10-16T09:45:34;101023.56;;;18.18;72.79
29433;BME280;16405;53.964;13.448;2022-10-16T09:48:10;101026.38;;;18.16;72.43
29433;BME280;16405;53.964;13.448;2022-10-16T09:50:43;101034.72;;;18.36;73.14
29433;BME280;16405;53.964;13.448;2022-10-16T09:53:18;101023.75;;;18.28;72.46
29433;BME280;16405;53.964;13.448;2022-10-16T09:55:57;101031.72;;;18.16;72.20
29433;BME280;16405;53.964;13.448;2022-10-16T09:58:26;101035.31;;;18.15;70.99
29433;BME280;16405;53.964;13.448;2022-10-16T10:01:02;101038.09;;;18.14;70.63
29433;BME280;16405;53.964;13.448;2022-10-16T10:03:38;101037.53;;;18.21;70.82
29433;BME280;16405;53.964;13.448;2022-10-16T10:06:26;101032.25;;;18.33;69.45
29433;BME280;16405;53.964;13.448;2022-10-16T10:09:26;101034.78;;;18.58;69.23
29433;BME280;16405;53.964;13.448;2022-10-16T10:14:43;101045.13;;;18.74;68.97
29433;BME280;16405;53.964;13.448;2022-10-16T10:17:23;101049.41;;;18.77;68.90
29433;BME280;16405;53.964;13.448;2022-10-16T10:20:33;101041.88;;;18.71;68.73
29433;BME280;16405;53.964;13.448;2022-10-16T10:23:26;101042.06;;;18.56;68.81
29433;BME280;16405;53.964;13.448;2022-10-16T10:26:15;101044.22;;;18.51;68.49
29433;BME280;16405;53.964;13.448;2022-10-16T10:37:49;101046.72;;;18.41;70.84
29433;BME280;16405;53.964;13.448;2022-10-16T10:46:04;101048.16;;;18.70;69.00
29433;BME280;16405;53.964;13.448;2022-10-16T11:01:33;101058.81;;;18.70;67.40
29433;BME280;16405;53.964;13.448;2022-10-16T11:10:58;101049.53;;;18.75;67.20
29433;BME280;16405;53.964;13.448;2022-10-16T11:16:34;101059.22;;;18.76;69.12
29433;BME280;16405;53.964;13.448;2022-10-16T11:25:20;101058.38;;;18.76;67.88
29433;BME280;16405;53.964;13.448;2022-10-16T11:31:03;101054.19;;;18.60;67.33
29433;BME280;16405;53.964;13.448;2022-10-16T11:36:39;101046.19;;;18.60;67.40
29433;BME280;16405;53.964;13.448;2022-10-16T11:39:31;101051.63;;;18.59;67.42
29433;BME280;16405;53.964;13.448;2022-10-16T11:42:36;101059.28;;;18.63;67.46
29433;BME280;16405;53.964;13.448;2022-10-16T11:45:26;101063.03;;;18.61;67.92
29433;BME280;16405;53.964;13.448;2022-10-16T11:48:30;101051.88;;;18.56;67.64
29433;BME280;16405;53.964;13.448;2022-10-16T11:57:38;101061.28;;;18.49;68.09
29433;BME280;16405;53.964;13.448;2022-10-16T12:00:26;101057.16;;;18.44;67.86
29433;BME280;16405;53.964;13.448;2022-10-16T12:03:28;101070.38;;;18.46;67.90
29433;BME280;16405;53.964;13.448;2022-10-16T12:08:52;101071.94;;;18.49;68.53
29433;BME280;16405;53.964;13.448;2022-10-16T12:13:52;101068.31;;;18.50;67.74
29433;BME280;16405;53.964;13.448;2022-10-16T12:16:28;101078.88;;;18.51;68.60
29433;BME280;16405;53.964;13.448;2022-10-16T12:19:13;101067.97;;;18.54;68.68
29433;BME280;16405;53.964;13.448;2022-10-16T12:21:40;101078.38;;;18.46;68.35
29433;BME280;16405;53.964;13.448;2022-10-16T12:24:34;101073.16;;;18.44;67.93
29433;BME280;16405;53.964;13.448;2022-10-16T12:27:01;101075.94;;;18.43;68.05
29433;BME280;16405;53.964;13.448;2022-10-16T12:29:43;101084.66;;;18.45;68.44
29433;BME280;16405;53.964;13.448;2022-10-16T12:32:29;101079.94;;;18.49;68.04
29433;BME280;16405;53.964;13.448;2022-10-16T12:34:55;101085.09;;;18.63;68.13
29433;BME280;16405;53.964;13.448;2022-10-16T12:37:27;101091.03;;;18.79;67.73
29433;BME280;16405;53.964;13.448;2022-10-16T12:39:56;101088.53;;;19.00;67.13
29433;BME280;16405;53.964;13.448;2022-10-16T12:42:33;101098.28;;;19.13;67.02
29433;BME280;16405;53.964;13.448;2022-10-16T12:45:00;101098.16;;;19.14;66.02
29433;BME280;16405;53.964;13.448;2022-10-16T12:50:03;101113.81;;;19.19;65.76
29433;BME280;16405;53.964;13.448;2022-10-16T12:52:48;101107.63;;;19.07;65.22
29433;BME280;16405;53.964;13.448;2022-10-16T12:55:19;101112.91;;;18.96;65.30
29433;BME280;16405;53.964;13.448;2022-10-16T13:03:58;101114.25;;;18.90;65.43
29433;BME280;16405;53.964;13.448;2022-10-16T13:06:52;101129.53;;;18.99;64.74
29433;BME280;16405;53.964;13.448;2022-10-16T13:09:47;101134.81;;;19.12;64.50
29433;BME280;16405;53.964;13.448;2022-10-16T13:12:41;101136.88;;;19.20;64.42
29433;BME280;16405;53.964;13.448;2022-10-16T13:15:39;101141.75;;;19.26;64.44
29433;BME280;16405;53.964;13.448;2022-10-16T13:18:28;101141.28;;;19.32;64.22
29433;BME280;16405;53.964;13.448;2022-10-16T13:27:14;101149.81;;;19.02;65.02
29433;BME280;16405;53.964;13.448;2022-10-16T13:29:41;101153.53;;;18.88;64.69
29433;BME280;16405;53.964;13.448;2022-10-16T13:32:11;101157.38;;;18.84;65.37
29433;BME280;16405;53.964;13.448;2022-10-16T13:34:45;101163.09;;;18.91;66.13
29433;BME280;16405;53.964;13.448;2022-10-16T13:37:21;101172.81;;;18.92;66.44
29433;BME280;16405;53.964;13.448;2022-10-16T13:39:48;101167.31;;;18.82;65.91
29433;BME280;16405;53.964;13.448;2022-10-16T13:42:27;101169.66;;;18.74;65.82
29433;BME280;16405;53.964;13.448;2022-10-16T13:44:55;101177.47;;;18.77;66.16
29433;BME280;16405;53.964;13.448;2022-10-16T13:47:28;101175.06;;;18.85;65.45
29433;BME280;16405;53.964;13.448;2022-10-16T13:50:12;101180.00;;;19.02;64.99
29433;BME280;16405;53.964;13.448;2022-10-16T13:52:41;101173.75;;;19.15;64.48
29433;BME280;16405;53.964;13.448;2022-10-16T13:55:16;101176.19;;;19.18;64.39
29433;BME280;16405;53.964;13.448;2022-10-16T13:57:43;101180.06;;;19.14;64.50
29433;BME280;16405;53.964;13.448;2022-10-16T14:00:25;101178.81;;;19.06;64.08
29433;BME280;16405;53.964;13.448;2022-10-16T14:03:13;101178.22;;;19.03;64.29
29433;BME280;16405;53.964;13.448;2022-10-16T14:05:55;101183.19;;;19.08;65.14
29433;BME280;16405;53.964;13.448;2022-10-16T14:08:23;101190.84;;;19.12;65.45
29433;BME280;16405;53.964;13.448;2022-10-16T14:10:59;101195.59;;;19.20;65.56
29433;BME280;16405;53.964;13.448;2022-10-16T14:13:38;101193.19;;;19.28;65.47
29433;BME280;16405;53.964;13.448;2022-10-16T14:16:25;101202.94;;;19.29;66.39
29433;BME280;16405;53.964;13.448;2022-10-16T14:19:03;101209.19;;;19.17;64.88
29433;BME280;16405;53.964;13.448;2022-10-16T14:21:33;101213.28;;;19.10;64.58
29433;BME280;16405;53.964;13.448;2022-10-16T14:23:59;101220.91;;;19.03;64.36
29433;BME280;16405;53.964;13.448;2022-10-16T14:26:42;101217.94;;;18.95;64.55
29433;BME280;16405;53.964;13.448;2022-10-16T14:29:15;101230.44;;;18.94;65.03
29433;BME280;16405;53.964;13.448;2022-10-16T14:32:20;101224.44;;;18.79;64.62
29433;BME280;16405;53.964;13.448;2022-10-16T14:34:53;101229.13;;;18.63;65.22
29433;BME280;16405;53.964;13.448;2022-10-16T14:37:27;101239.72;;;18.52;65.82
29433;BME280;16405;53.964;13.448;2022-10-16T14:39:55;101239.84;;;18.37;66.01